sensor_id;sensor_type;location;lat;lon;timestamp;P1;durP1;ratioP1;P2;durP2;ratioP2
1258;SDS011;619;51.472;6.628;2022-12-10T00:01:30;50.83;;;33.53;;
1258;SDS011;619;51.472;6.628;2022-12-10T00:04:01;56.33;;;35.87;;
1258;SDS011;619;51.472;6.628;2022-12-10T00:06:29;50.37;;;34.23;;
1258;SDS011;619;51.472;6.628;2022-12-10T00:08:56;54.53;;;35.43;;
1258;SDS011;619;51.472;6.628;2022-12-10T00:11:23;51.30;;;35.10;;
1258;SDS011;619;51.472;6.628;2022-12-10T00:13:49;51.07;;;34.73;;
1258;SDS011;619;51.472;6.628;2022-12-10T00:16:17;46.67;;;34.30;;
1258;SDS011;619;51.472;6.628;2022-12-10T00:18:45;51.33;;;34.30;;
1258;SDS011;619;51.472;6.628;2022-12-10T00:21:12;52.90;;;35.00;;
1258;SDS011;619;51.472;6.628;2022-12-10T00:23:57;51.57;;;34.93;;
1258;SDS011;619;51.472;6.628;2022-12-10T00:26:28;46.97;;;33.43;;
1258;SDS011;619;51.472;6.628;2022-12-10T00:29:02;47.00;;;32.97;;
1258;SDS011;619;51.472;6.628;2022-12-10T00:31:30;53.40;;;37.90;;
1258;SDS011;619;51.472;6.628;2022-12-10T00:33:58;54.77;;;34.73;;
1258;SDS011;619;51.472;6.628;2022-12-10T00:36:32;55.30;;;32.67;;
1258;SDS011;619;51.472;6.628;2022-12-10T00:39:00;49.97;;;32.70;;
1258;SDS011;619;51.472;6.628;2022-12-10T00:41:27;52.70;;;34.60;;
1258;SDS011;619;51.472;6.628;2022-12-10T00:43:56;44.87;;;31.67;;
1258;SDS011;619;51.472;6.628;2022-12-10T00:46:21;50.30;;;32.20;;
1258;SDS011;619;51.472;6.628;2022-12-10T00:48:47;50.17;;;32.93;;
1258;SDS011;619;51.472;6.628;2022-12-10T00:51:14;45.37;;;32.40;;
1258;SDS011;619;51.472;6.628;2022-12-10T00:53:47;52.90;;;33.60;;
1258;SDS011;619;51.472;6.628;2022-12-10T00:56:15;47.70;;;31.60;;
1258;SDS011;619;51.472;6.628;2022-12-10T00:58:45;40.80;;;31.20;;
1258;SDS011;619;51.472;6.628;2022-12-10T01:01:21;44.90;;;32.93;;
1258;SDS011;619;51.472;6.628;2022-12-10T01:04:10;43.77;;;32.10;;
1258;SDS011;619;51.472;6.628;2022-12-10T01:06:47;43.80;;;30.40;;
1258;SDS011;619;51.472;6.628;2022-12-10T01:09:16;42.67;;;30.53;;
1258;SDS011;619;51.472;6.628;2022-12-10T01:11:47;46.23;;;31.17;;
1258;SDS011;619;51.472;6.628;2022-12-10T01:14:16;45.10;;;30.90;;
1258;SDS011;619;51.472;6.628;2022-12-10T01:16:47;40.87;;;29.97;;
1258;SDS011;619;51.472;6.628;2022-12-10T01:19:13;43.37;;;29.27;;
1258;SDS011;619;51.472;6.628;2022-12-10T01:21:39;40.50;;;29.97;;
1258;SDS011;619;51.472;6.628;2022-12-10T01:24:04;36.70;;;27.20;;
1258;SDS011;619;51.472;6.628;2022-12-10T01:26:31;36.83;;;27.50;;
1258;SDS011;619;51.472;6.628;2022-12-10T01:29:03;41.93;;;29.10;;
1258;SDS011;619;51.472;6.628;2022-12-10T01:31:32;41.17;;;28.13;;
1258;SDS011;619;51.472;6.628;2022-12-10T01:34:00;42.20;;;29.23;;
1258;SDS011;619;51.472;6.628;2022-12-10T01:36:30;38.57;;;29.50;;
1258;SDS011;619;51.472;6.628;2022-12-10T01:39:04;32.63;;;25.70;;
1258;SDS011;619;51.472;6.628;2022-12-10T01:41:40;40.17;;;28.10;;
1258;SDS011;619;51.472;6.628;2022-12-10T01:46:55;39.20;;;28.87;;
1258;SDS011;619;51.472;6.628;2022-12-10T01:51:56;32.13;;;24.97;;
1258;SDS011;619;51.472;6.628;2022-12-10T01:54:25;38.53;;;26.50;;
1258;SDS011;619;51.472;6.628;2022-12-10T01:57:02;37.70;;;29.37;;
1258;SDS011;619;51.472;6.628;2022-12-10T01:59:29;37.87;;;27.17;;
1258;SDS011;619;51.472;6.628;2022-12-10T02:07:02;37.97;;;28.77;;
1258;SDS011;619;51.472;6.628;2022-12-10T02:14:54;36.90;;;27.30;;
1258;SDS011;619;51.472;6.628;2022-12-10T02:17:25;46.03;;;27.80;;
1258;SDS011;619;51.472;6.628;2022-12-10T02:20:11;36.13;;;25.83;;
1258;SDS011;619;51.472;6.628;2022-12-10T02:22:42;41.20;;;27.33;;
1258;SDS011;619;51.472;6.628;2022-12-10T02:25:17;40.80;;;27.23;;
1258;SDS011;619;51.472;6.628;2022-12-10T02:27:48;39.23;;;27.07;;
1258;SDS011;619;51.472;6.628;2022-12-10T02:30:24;39.37;;;28.63;;
1258;SDS011;619;51.472;6.628;2022-12-10T02:32:50;38.33;;;27.50;;
1258;SDS011;619;51.472;6.628;2022-12-10T02:35:17;42.27;;;29.80;;
1258;SDS011;619;51.472;6.628;2022-12-10T02:37:52;35.50;;;27.00;;
1258;SDS011;619;51.472;6.628;2022-12-10T02:40:27;38.50;;;27.67;;
1258;SDS011;619;51.472;6.628;2022-12-10T02:42:58;42.00;;;28.50;;
1258;SDS011;619;51.472;6.628;2022-12-10T02:45:24;42.93;;;28.70;;
1258;SDS011;619;51.472;6.628;2022-12-10T02:47:57;37.07;;;27.90;;
1258;SDS011;619;51.472;6.628;2022-12-10T02:50:25;41.80;;;28.00;;
1258;SDS011;619;51.472;6.628;2022-12-10T02:52:56;36.97;;;28.60;;
1258;SDS011;619;51.472;6.628;2022-12-10T02:55:21;40.43;;;28.53;;
1258;SDS011;619;51.472;6.628;2022-12-10T03:00:28;39.33;;;27.43;;
1258;SDS011;619;51.472;6.628;2022-12-10T03:05:58;39.67;;;26.27;;
1258;SDS011;619;51.472;6.628;2022-12-10T03:11:19;38.63;;;25.77;;
1258;SDS011;619;51.472;6.628;2022-12-10T03:16:45;38.90;;;27.40;;
1258;SDS011;619;51.472;6.628;2022-12-10T03:19:19;38.07;;;27.13;;
1258;SDS011;619;51.472;6.628;2022-12-10T03:21:49;40.20;;;27.83;;
1258;SDS011;619;51.472;6.628;2022-12-10T03:24:18;39.83;;;26.47;;
1258;SDS011;619;51.472;6.628;2022-12-10T03:26:46;44.27;;;27.70;;
1258;SDS011;619;51.472;6.628;2022-12-10T03:29:17;46.90;;;27.57;;
1258;SDS011;619;51.472;6.628;2022-12-10T03:31:48;77.37;;;27.73;;
1258;SDS011;619;51.472;6.628;2022-12-10T03:34:18;56.33;;;26.50;;
1258;SDS011;619;51.472;6.628;2022-12-10T03:36:45;45.90;;;25.70;;
1258;SDS011;619;51.472;6.628;2022-12-10T03:39:12;51.13;;;27.47;;
1258;SDS011;619;51.472;6.628;2022-12-10T03:41:38;50.63;;;28.70;;
1258;SDS011;619;51.472;6.628;2022-12-10T03:44:04;40.30;;;24.73;;
1258;SDS011;619;51.472;6.628;2022-12-10T03:46:30;38.90;;;26.33;;
1258;SDS011;619;51.472;6.628;2022-12-10T03:48:59;38.17;;;24.60;;
1258;SDS011;619;51.472;6.628;2022-12-10T03:51:25;38.63;;;25.20;;
1258;SDS011;619;51.472;6.628;2022-12-10T03:53:56;36.37;;;24.60;;
1258;SDS011;619;51.472;6.628;2022-12-10T03:56:21;43.10;;;25.00;;
1258;SDS011;619;51.472;6.628;2022-12-10T03:58:50;37.60;;;27.27;;
1258;SDS011;619;51.472;6.628;2022-12-10T04:01:18;39.70;;;24.63;;
1258;SDS011;619;51.472;6.628;2022-12-10T04:03:43;35.10;;;25.60;;
1258;SDS011;619;51.472;6.628;2022-12-10T04:06:13;35.43;;;23.67;;
1258;SDS011;619;51.472;6.628;2022-12-10T04:08:41;41.10;;;25.63;;
1258;SDS011;619;51.472;6.628;2022-12-10T04:11:10;33.07;;;22.87;;
1258;SDS011;619;51.472;6.628;2022-12-10T04:13:39;36.07;;;25.07;;
1258;SDS011;619;51.472;6.628;2022-12-10T04:16:24;35.40;;;22.33;;
1258;SDS011;619;51.472;6.628;2022-12-10T04:18:55;42.17;;;25.20;;
1258;SDS011;619;51.472;6.628;2022-12-10T04:21:20;34.50;;;23.63;;
1258;SDS011;619;51.472;6.628;2022-12-10T04:24:05;34.07;;;23.00;;
1258;SDS011;619;51.472;6.628;2022-12-10T04:26:53;32.63;;;23.90;;
1258;SDS011;619;51.472;6.628;2022-12-10T04:29:23;32.53;;;23.70;;
1258;SDS011;619;51.472;6.628;2022-12-10T04:31:54;35.33;;;22.13;;
1258;SDS011;619;51.472;6.628;2022-12-10T04:34:23;31.47;;;22.10;;
1258;SDS011;619;51.472;6.628;2022-12-10T04:36:51;36.70;;;24.90;;
1258;SDS011;619;51.472;6.628;2022-12-10T04:39:21;37.03;;;24.13;;
1258;SDS011;619;51.472;6.628;2022-12-10T04:41:47;34.07;;;23.53;;
1258;SDS011;619;51.472;6.628;2022-12-10T04:44:18;35.93;;;23.23;;
1258;SDS011;619;51.472;6.628;2022-12-10T04:46:44;36.47;;;24.73;;
1258;SDS011;619;51.472;6.628;2022-12-10T04:49:10;33.57;;;22.10;;
1258;SDS011;619;51.472;6.628;2022-12-10T04:51:36;30.77;;;20.63;;
1258;SDS011;619;51.472;6.628;2022-12-10T04:54:03;33.43;;;23.07;;
1258;SDS011;619;51.472;6.628;2022-12-10T04:56:32;29.67;;;22.27;;
1258;SDS011;619;51.472;6.628;2022-12-10T04:59:00;32.67;;;22.67;;
1258;SDS011;619;51.472;6.628;2022-12-10T05:01:26;33.87;;;21.90;;
1258;SDS011;619;51.472;6.628;2022-12-10T05:03:53;28.67;;;21.13;;
1258;SDS011;619;51.472;6.628;2022-12-10T05:06:19;38.70;;;24.40;;
1258;SDS011;619;51.472;6.628;2022-12-10T05:08:45;35.63;;;24.33;;
1258;SDS011;619;51.472;6.628;2022-12-10T05:11:15;37.37;;;24.70;;
1258;SDS011;619;51.472;6.628;2022-12-10T05:13:42;31.87;;;22.40;;
1258;SDS011;619;51.472;6.628;2022-12-10T05:16:12;36.20;;;25.03;;
1258;SDS011;619;51.472;6.628;2022-12-10T05:18:39;30.57;;;22.53;;
1258;SDS011;619;51.472;6.628;2022-12-10T05:21:10;33.03;;;24.03;;
1258;SDS011;619;51.472;6.628;2022-12-10T05:23:41;40.40;;;24.90;;
1258;SDS011;619;51.472;6.628;2022-12-10T05:28:45;33.90;;;22.90;;
1258;SDS011;619;51.472;6.628;2022-12-10T05:31:17;30.20;;;22.73;;
1258;SDS011;619;51.472;6.628;2022-12-10T05:33:47;33.90;;;22.57;;
1258;SDS011;619;51.472;6.628;2022-12-10T05:36:14;31.93;;;22.33;;
1258;SDS011;619;51.472;6.628;2022-12-10T05:38:42;30.03;;;22.53;;
1258;SDS011;619;51.472;6.628;2022-12-10T05:41:10;31.57;;;21.03;;
1258;SDS011;619;51.472;6.628;2022-12-10T05:43:43;35.60;;;22.20;;
1258;SDS011;619;51.472;6.628;2022-12-10T05:46:15;33.63;;;23.10;;
1258;SDS011;619;51.472;6.628;2022-12-10T05:48:43;31.70;;;23.10;;
1258;SDS011;619;51.472;6.628;2022-12-10T05:51:18;32.47;;;22.60;;
1258;SDS011;619;51.472;6.628;2022-12-10T05:53:46;35.77;;;23.97;;
1258;SDS011;619;51.472;6.628;2022-12-10T05:56:15;30.20;;;22.83;;
1258;SDS011;619;51.472;6.628;2022-12-10T05:58:46;31.23;;;21.93;;
1258;SDS011;619;51.472;6.628;2022-12-10T06:01:21;30.07;;;23.00;;
1258;SDS011;619;51.472;6.628;2022-12-10T06:03:49;28.67;;;21.43;;
1258;SDS011;619;51.472;6.628;2022-12-10T06:06:27;31.33;;;22.80;;
1258;SDS011;619;51.472;6.628;2022-12-10T06:08:55;32.07;;;23.23;;
1258;SDS011;619;51.472;6.628;2022-12-10T06:11:21;31.53;;;22.87;;
1258;SDS011;619;51.472;6.628;2022-12-10T06:13:50;35.20;;;23.47;;
1258;SDS011;619;51.472;6.628;2022-12-10T06:16:15;27.30;;;19.57;;
1258;SDS011;619;51.472;6.628;2022-12-10T06:18:43;31.40;;;22.80;;
1258;SDS011;619;51.472;6.628;2022-12-10T06:21:12;29.90;;;21.20;;
1258;SDS011;619;51.472;6.628;2022-12-10T06:23:39;33.80;;;23.57;;
1258;SDS011;619;51.472;6.628;2022-12-10T06:26:15;32.57;;;22.80;;
1258;SDS011;619;51.472;6.628;2022-12-10T06:28:53;32.40;;;22.80;;
1258;SDS011;619;51.472;6.628;2022-12-10T06:31:22;33.77;;;24.00;;
1258;SDS011;619;51.472;6.628;2022-12-10T06:33:48;33.63;;;25.00;;
1258;SDS011;619;51.472;6.628;2022-12-10T06:36:18;43.23;;;28.33;;
1258;SDS011;619;51.472;6.628;2022-12-10T06:38:46;41.77;;;25.77;;
1258;SDS011;619;51.472;6.628;2022-12-10T06:41:16;34.20;;;23.33;;
1258;SDS011;619;51.472;6.628;2022-12-10T06:43:43;45.30;;;27.10;;
1258;SDS011;619;51.472;6.628;2022-12-10T06:46:13;38.60;;;25.80;;
1258;SDS011;619;51.472;6.628;2022-12-10T06:48:40;40.40;;;28.60;;
1258;SDS011;619;51.472;6.628;2022-12-10T06:51:06;49.70;;;29.17;;
1258;SDS011;619;51.472;6.628;2022-12-10T06:53:33;46.03;;;31.10;;
1258;SDS011;619;51.472;6.628;2022-12-10T06:56:02;48.93;;;27.60;;
1258;SDS011;619;51.472;6.628;2022-12-10T06:58:29;48.13;;;31.50;;
1258;SDS011;619;51.472;6.628;2022-12-10T07:01:07;48.13;;;31.90;;
1258;SDS011;619;51.472;6.628;2022-12-10T07:03:41;44.57;;;31.20;;
1258;SDS011;619;51.472;6.628;2022-12-10T07:06:07;51.43;;;31.90;;
1258;SDS011;619;51.472;6.628;2022-12-10T07:08:36;54.37;;;32.53;;
1258;SDS011;619;51.472;6.628;2022-12-10T07:11:11;58.20;;;35.43;;
1258;SDS011;619;51.472;6.628;2022-12-10T07:13:38;46.97;;;30.33;;
1258;SDS011;619;51.472;6.628;2022-12-10T07:16:14;55.40;;;33.70;;
1258;SDS011;619;51.472;6.628;2022-12-10T07:18:47;65.10;;;33.80;;
1258;SDS011;619;51.472;6.628;2022-12-10T07:21:27;54.10;;;32.60;;
1258;SDS011;619;51.472;6.628;2022-12-10T07:23:55;54.27;;;32.30;;
1258;SDS011;619;51.472;6.628;2022-12-10T07:26:25;52.90;;;32.93;;
1258;SDS011;619;51.472;6.628;2022-12-10T07:28:53;50.60;;;31.20;;
1258;SDS011;619;51.472;6.628;2022-12-10T07:31:19;57.37;;;33.03;;
1258;SDS011;619;51.472;6.628;2022-12-10T07:33:50;60.07;;;35.07;;
1258;SDS011;619;51.472;6.628;2022-12-10T07:36:16;58.43;;;33.80;;
1258;SDS011;619;51.472;6.628;2022-12-10T07:38:42;59.50;;;34.43;;
1258;SDS011;619;51.472;6.628;2022-12-10T07:41:14;54.03;;;34.17;;
1258;SDS011;619;51.472;6.628;2022-12-10T07:43:40;57.20;;;33.87;;
1258;SDS011;619;51.472;6.628;2022-12-10T07:46:08;56.33;;;32.80;;
1258;SDS011;619;51.472;6.628;2022-12-10T07:48:40;56.87;;;33.20;;
1258;SDS011;619;51.472;6.628;2022-12-10T07:51:11;50.10;;;31.87;;
1258;SDS011;619;51.472;6.628;2022-12-10T07:53:40;56.03;;;33.40;;
1258;SDS011;619;51.472;6.628;2022-12-10T07:56:05;55.07;;;31.80;;
1258;SDS011;619;51.472;6.628;2022-12-10T07:58:31;55.63;;;32.27;;
1258;SDS011;619;51.472;6.628;2022-12-10T08:01:05;49.93;;;32.73;;
1258;SDS011;619;51.472;6.628;2022-12-10T08:03:32;54.93;;;33.40;;
1258;SDS011;619;51.472;6.628;2022-12-10T08:06:00;51.90;;;34.03;;
1258;SDS011;619;51.472;6.628;2022-12-10T08:08:27;54.90;;;32.77;;
1258;SDS011;619;51.472;6.628;2022-12-10T08:10:53;54.20;;;33.53;;
1258;SDS011;619;51.472;6.628;2022-12-10T08:13:24;49.00;;;32.50;;
1258;SDS011;619;51.472;6.628;2022-12-10T08:15:52;56.30;;;32.30;;
1258;SDS011;619;51.472;6.628;2022-12-10T08:18:17;55.27;;;31.60;;
1258;SDS011;619;51.472;6.628;2022-12-10T08:20:43;55.57;;;33.30;;
1258;SDS011;619;51.472;6.628;2022-12-10T08:23:11;58.20;;;32.83;;
1258;SDS011;619;51.472;6.628;2022-12-10T08:25:37;55.77;;;34.37;;
1258;SDS011;619;51.472;6.628;2022-12-10T08:28:02;51.17;;;31.40;;
1258;SDS011;619;51.472;6.628;2022-12-10T08:30:33;51.40;;;33.30;;
1258;SDS011;619;51.472;6.628;2022-12-10T08:32:58;58.30;;;31.33;;
1258;SDS011;619;51.472;6.628;2022-12-10T08:35:24;57.60;;;34.40;;
1258;SDS011;619;51.472;6.628;2022-12-10T08:37:50;53.33;;;32.00;;
1258;SDS011;619;51.472;6.628;2022-12-10T08:40:18;56.57;;;34.07;;
1258;SDS011;619;51.472;6.628;2022-12-10T08:42:43;47.50;;;30.17;;
1258;SDS011;619;51.472;6.628;2022-12-10T08:45:09;52.17;;;29.80;;
1258;SDS011;619;51.472;6.628;2022-12-10T08:47:35;47.07;;;29.90;;
1258;SDS011;619;51.472;6.628;2022-12-10T08:50:00;55.93;;;33.70;;
1258;SDS011;619;51.472;6.628;2022-12-10T08:52:29;53.70;;;34.03;;
1258;SDS011;619;51.472;6.628;2022-12-10T08:54:54;59.93;;;33.63;;
1258;SDS011;619;51.472;6.628;2022-12-10T08:57:22;51.47;;;31.33;;
1258;SDS011;619;51.472;6.628;2022-12-10T08:59:48;57.63;;;32.53;;
1258;SDS011;619;51.472;6.628;2022-12-10T09:02:13;52.67;;;32.70;;
1258;SDS011;619;51.472;6.628;2022-12-10T09:04:39;60.97;;;35.87;;
1258;SDS011;619;51.472;6.628;2022-12-10T09:07:06;52.27;;;31.47;;
1258;SDS011;619;51.472;6.628;2022-12-10T09:09:31;51.80;;;31.20;;
1258;SDS011;619;51.472;6.628;2022-12-10T09:11:57;57.77;;;33.00;;
1258;SDS011;619;51.472;6.628;2022-12-10T09:14:25;54.00;;;33.60;;
1258;SDS011;619;51.472;6.628;2022-12-10T09:16:53;50.83;;;32.63;;
1258;SDS011;619;51.472;6.628;2022-12-10T09:19:19;51.50;;;32.73;;
1258;SDS011;619;51.472;6.628;2022-12-10T09:21:44;52.93;;;33.00;;
1258;SDS011;619;51.472;6.628;2022-12-10T09:24:10;46.60;;;32.53;;
1258;SDS011;619;51.472;6.628;2022-12-10T09:26:35;54.83;;;34.40;;
1258;SDS011;619;51.472;6.628;2022-12-10T09:29:03;53.60;;;34.20;;
1258;SDS011;619;51.472;6.628;2022-12-10T09:31:29;53.37;;;31.50;;
1258;SDS011;619;51.472;6.628;2022-12-10T09:33:57;48.70;;;32.70;;
1258;SDS011;619;51.472;6.628;2022-12-10T09:36:25;48.57;;;32.83;;
1258;SDS011;619;51.472;6.628;2022-12-10T09:38:51;46.53;;;29.90;;
1258;SDS011;619;51.472;6.628;2022-12-10T09:47:01;36.60;;;25.83;;
1258;SDS011;619;51.472;6.628;2022-12-10T09:52:19;42.50;;;26.50;;
1258;SDS011;619;51.472;6.628;2022-12-10T09:54:49;37.20;;;25.30;;
1258;SDS011;619;51.472;6.628;2022-12-10T09:57:30;45.50;;;26.20;;
1258;SDS011;619;51.472;6.628;2022-12-10T10:02:58;36.57;;;24.03;;
1258;SDS011;619;51.472;6.628;2022-12-10T10:05:29;35.70;;;24.63;;
1258;SDS011;619;51.472;6.628;2022-12-10T10:07:59;35.23;;;23.40;;
1258;SDS011;619;51.472;6.628;2022-12-10T10:13:01;32.90;;;24.80;;
1258;SDS011;619;51.472;6.628;2022-12-10T10:15:52;35.47;;;25.93;;
1258;SDS011;619;51.472;6.628;2022-12-10T10:18:37;33.60;;;24.87;;
1258;SDS011;619;51.472;6.628;2022-12-10T10:21:10;34.03;;;22.97;;
1258;SDS011;619;51.472;6.628;2022-12-10T10:23:48;31.93;;;23.40;;
1258;SDS011;619;51.472;6.628;2022-12-10T10:26:15;34.70;;;24.77;;
1258;SDS011;619;51.472;6.628;2022-12-10T10:28:43;38.23;;;25.33;;
1258;SDS011;619;51.472;6.628;2022-12-10T10:31:21;33.80;;;23.20;;
1258;SDS011;619;51.472;6.628;2022-12-10T10:33:55;35.53;;;25.10;;
1258;SDS011;619;51.472;6.628;2022-12-10T10:36:27;41.23;;;26.27;;
1258;SDS011;619;51.472;6.628;2022-12-10T10:41:36;38.40;;;26.03;;
1258;SDS011;619;51.472;6.628;2022-12-10T10:44:05;39.83;;;26.00;;
1258;SDS011;619;51.472;6.628;2022-12-10T10:46:42;39.83;;;26.73;;
1258;SDS011;619;51.472;6.628;2022-12-10T10:51:53;44.07;;;28.10;;
1258;SDS011;619;51.472;6.628;2022-12-10T10:57:03;40.53;;;27.47;;
1258;SDS011;619;51.472;6.628;2022-12-10T10:59:38;39.03;;;27.57;;
1258;SDS011;619;51.472;6.628;2022-12-10T11:02:15;47.00;;;30.67;;
1258;SDS011;619;51.472;6.628;2022-12-10T11:04:45;36.90;;;26.43;;
1258;SDS011;619;51.472;6.628;2022-12-10T11:10:00;48.00;;;29.80;;
1258;SDS011;619;51.472;6.628;2022-12-10T11:12:38;37.93;;;26.13;;
1258;SDS011;619;51.472;6.628;2022-12-10T11:17:50;44.93;;;28.17;;
1258;SDS011;619;51.472;6.628;2022-12-10T11:20:22;46.73;;;31.10;;
1258;SDS011;619;51.472;6.628;2022-12-10T11:22:51;46.80;;;29.20;;
1258;SDS011;619;51.472;6.628;2022-12-10T11:25:26;49.27;;;32.80;;
1258;SDS011;619;51.472;6.628;2022-12-10T11:28:07;44.63;;;29.10;;
1258;SDS011;619;51.472;6.628;2022-12-10T11:30:40;47.60;;;31.17;;
1258;SDS011;619;51.472;6.628;2022-12-10T11:33:25;46.33;;;28.73;;
1258;SDS011;619;51.472;6.628;2022-12-10T11:41:53;47.70;;;31.03;;
1258;SDS011;619;51.472;6.628;2022-12-10T11:52:49;45.30;;;29.23;;
1258;SDS011;619;51.472;6.628;2022-12-10T11:56:03;41.30;;;26.97;;
1258;SDS011;619;51.472;6.628;2022-12-10T12:01:08;43.30;;;28.30;;
1258;SDS011;619;51.472;6.628;2022-12-10T12:03:50;48.87;;;29.87;;
1258;SDS011;619;51.472;6.628;2022-12-10T12:20:08;47.97;;;29.43;;
1258;SDS011;619;51.472;6.628;2022-12-10T12:22:41;49.43;;;30.03;;
1258;SDS011;619;51.472;6.628;2022-12-10T12:25:22;50.13;;;29.90;;
1258;SDS011;619;51.472;6.628;2022-12-10T12:28:01;48.90;;;30.57;;
1258;SDS011;619;51.472;6.628;2022-12-10T12:30:41;48.53;;;29.70;;
1258;SDS011;619;51.472;6.628;2022-12-10T12:35:44;50.00;;;31.17;;
1258;SDS011;619;51.472;6.628;2022-12-10T12:38:27;53.13;;;32.87;;
1258;SDS011;619;51.472;6.628;2022-12-10T12:43:55;43.07;;;27.63;;
1258;SDS011;619;51.472;6.628;2022-12-10T12:46:44;46.77;;;29.80;;
1258;SDS011;619;51.472;6.628;2022-12-10T12:49:34;49.60;;;32.10;;
1258;SDS011;619;51.472;6.628;2022-12-10T12:54:44;52.50;;;30.40;;
1258;SDS011;619;51.472;6.628;2022-12-10T13:00:16;46.47;;;30.73;;
1258;SDS011;619;51.472;6.628;2022-12-10T13:13:37;44.50;;;30.03;;
1258;SDS011;619;51.472;6.628;2022-12-10T13:25:04;43.97;;;27.37;;
1258;SDS011;619;51.472;6.628;2022-12-10T13:28:30;47.73;;;28.33;;
1258;SDS011;619;51.472;6.628;2022-12-10T13:41:39;48.23;;;30.43;;
1258;SDS011;619;51.472;6.628;2022-12-10T13:44:48;43.20;;;28.30;;
1258;SDS011;619;51.472;6.628;2022-12-10T13:47:27;46.87;;;30.30;;
1258;SDS011;619;51.472;6.628;2022-12-10T13:50:00;43.50;;;28.20;;
1258;SDS011;619;51.472;6.628;2022-12-10T13:55:48;47.90;;;29.20;;
1258;SDS011;619;51.472;6.628;2022-12-10T14:01:37;46.57;;;28.47;;
1258;SDS011;619;51.472;6.628;2022-12-10T14:04:10;43.07;;;29.20;;
1258;SDS011;619;51.472;6.628;2022-12-10T14:07:03;47.23;;;29.17;;
1258;SDS011;619;51.472;6.628;2022-12-10T14:09:33;49.20;;;28.13;;
1258;SDS011;619;51.472;6.628;2022-12-10T14:12:17;47.87;;;29.77;;
1258;SDS011;619;51.472;6.628;2022-12-10T14:14:48;42.87;;;27.87;;
1258;SDS011;619;51.472;6.628;2022-12-10T14:17:41;47.13;;;27.90;;
1258;SDS011;619;51.472;6.628;2022-12-10T14:20:11;47.60;;;29.50;;
1258;SDS011;619;51.472;6.628;2022-12-10T14:22:47;47.47;;;28.07;;
1258;SDS011;619;51.472;6.628;2022-12-10T14:25:15;46.13;;;29.70;;
1258;SDS011;619;51.472;6.628;2022-12-10T14:27:43;49.80;;;31.00;;
1258;SDS011;619;51.472;6.628;2022-12-10T14:32:49;47.90;;;30.60;;
1258;SDS011;619;51.472;6.628;2022-12-10T14:35:16;49.30;;;31.70;;
1258;SDS011;619;51.472;6.628;2022-12-10T14:37:53;50.63;;;31.57;;
1258;SDS011;619;51.472;6.628;2022-12-10T14:40:23;49.30;;;29.60;;
1258;SDS011;619;51.472;6.628;2022-12-10T14:42:53;54.30;;;31.70;;
1258;SDS011;619;51.472;6.628;2022-12-10T14:45:27;53.10;;;32.87;;
1258;SDS011;619;51.472;6.628;2022-12-10T14:48:05;52.40;;;31.10;;
1258;SDS011;619;51.472;6.628;2022-12-10T14:50:33;54.27;;;33.13;;
1258;SDS011;619;51.472;6.628;2022-12-10T14:53:01;47.90;;;29.63;;
1258;SDS011;619;51.472;6.628;2022-12-10T14:55:30;51.33;;;32.70;;
1258;SDS011;619;51.472;6.628;2022-12-10T14:58:00;51.00;;;30.93;;
1258;SDS011;619;51.472;6.628;2022-12-10T15:00:28;48.63;;;29.57;;
1258;SDS011;619;51.472;6.628;2022-12-10T15:02:55;55.07;;;32.43;;
1258;SDS011;619;51.472;6.628;2022-12-10T15:05:27;52.20;;;30.90;;
1258;SDS011;619;51.472;6.628;2022-12-10T15:13:03;57.67;;;31.50;;
1258;SDS011;619;51.472;6.628;2022-12-10T15:15:37;59.37;;;32.40;;
